sensor_id;sensor_type;location;lat;lon;timestamp;P1;durP1;ratioP1;P2;durP2;ratioP2
74532;SDS011;63012;51.096;-115.366;2022-09-12T00:01:36;9.20;;;3.80;;
74532;SDS011;63012;51.096;-115.366;2022-09-12T00:04:03;8.70;;;3.50;;
74532;SDS011;63012;51.096;-115.366;2022-09-12T00:06:33;9.10;;;3.60;;
74532;SDS011;63012;51.096;-115.366;2022-09-12T00:09:08;9.80;;;4.00;;
74532;SDS011;63012;51.096;-115.366;2022-09-12T00:11:39;10.70;;;4.50;;
74532;SDS011;63012;51.096;-115.366;2022-09-12T00:14:11;10.40;;;4.90;;
74532;SDS011;63012;51.096;-115.366;2022-09-12T00:16:41;10.90;;;5.00;;
74532;SDS011;63012;51.096;-115.366;2022-09-12T00:19:11;11.00;;;4.70;;
74532;SDS011;63012;51.096;-115.366;2022-09-12T00:21:40;12.50;;;5.40;;
74532;SDS011;63012;51.096;-115.366;2022-09-12T00:24:16;10.90;;;5.20;;
74532;SDS011;63012;51.096;-115.366;2022-09-12T00:26:47;12.00;;;5.60;;
74532;SDS011;63012;51.096;-115.366;2022-09-12T00:29:19;10.70;;;5.10;;
74532;SDS011;63012;51.096;-115.366;2022-09-12T00:31:48;10.00;;;4.40;;
74532;SDS011;63012;51.096;-115.366;2022-09-12T00:34:15;11.40;;;5.10;;
74532;SDS011;63012;51.096;-115.366;2022-09-12T00:36:42;11.50;;;5.40;;
74532;SDS011;63012;51.096;-115.366;2022-09-12T00:39:14;10.70;;;5.10;;
74532;SDS011;63012;51.096;-115.366;2022-09-12T00:41:45;11.40;;;5.10;;
74532;SDS011;63012;51.096;-115.366;2022-09-12T00:46:58;11.10;;;4.90;;
74532;SDS011;63012;51.096;-115.366;2022-09-12T00:52:24;12.90;;;5.00;;
74532;SDS011;63012;51.096;-115.366;2022-09-12T00:55:14;12.50;;;5.30;;
74532;SDS011;63012;51.096;-115.366;2022-09-12T00:58:01;11.50;;;4.90;;
74532;SDS011;63012;51.096;-115.366;2022-09-12T01:00:37;10.70;;;5.50;;
74532;SDS011;63012;51.096;-115.366;2022-09-12T01:03:18;10.70;;;5.20;;
74532;SDS011;63012;51.096;-115.366;2022-09-12T01:06:40;11.30;;;4.90;;
74532;SDS011;63012;51.096;-115.366;2022-09-12T01:08:51;10.50;;;5.10;;
74532;SDS011;63012;51.096;-115.366;2022-09-12T01:11:21;11.30;;;5.40;;
74532;SDS011;63012;51.096;-115.366;2022-09-12T01:13:48;11.90;;;5.70;;
74532;SDS011;63012;51.096;-115.366;2022-09-12T01:16:16;11.60;;;5.40;;
74532;SDS011;63012;51.096;-115.366;2022-09-12T01:25:37;11.50;;;5.30;;
74532;SDS011;63012;51.096;-115.366;2022-09-12T01:28:49;10.60;;;5.50;;
74532;SDS011;63012;51.096;-115.366;2022-09-12T01:31:46;10.70;;;5.10;;
74532;SDS011;63012;51.096;-115.366;2022-09-12T01:34:41;11.20;;;5.40;;
74532;SDS011;63012;51.096;-115.366;2022-09-12T01:38:04;11.70;;;5.40;;
74532;SDS011;63012;51.096;-115.366;2022-09-12T01:46:11;11.50;;;5.70;;
74532;SDS011;63012;51.096;-115.366;2022-09-12T01:49:22;11.70;;;6.00;;
74532;SDS011;63012;51.096;-115.366;2022-09-12T01:52:14;12.00;;;6.00;;
74532;SDS011;63012;51.096;-115.366;2022-09-12T01:55:16;11.40;;;5.50;;
74532;SDS011;63012;51.096;-115.366;2022-09-12T01:57:58;11.50;;;5.60;;
74532;SDS011;63012;51.096;-115.366;2022-09-12T02:03:31;11.80;;;5.70;;
74532;SDS011;63012;51.096;-115.366;2022-09-12T02:06:21;12.30;;;6.20;;
74532;SDS011;63012;51.096;-115.366;2022-09-12T02:09:00;11.50;;;5.70;;
74532;SDS011;63012;51.096;-115.366;2022-09-12T02:11:40;12.40;;;6.20;;
74532;SDS011;63012;51.096;-115.366;2022-09-12T02:14:24;13.50;;;6.30;;
74532;SDS011;63012;51.096;-115.366;2022-09-12T02:17:12;11.40;;;5.40;;
74532;SDS011;63012;51.096;-115.366;2022-09-12T02:20:15;12.00;;;5.90;;
74532;SDS011;63012;51.096;-115.366;2022-09-12T02:22:47;12.40;;;6.10;;
74532;SDS011;63012;51.096;-115.366;2022-09-12T02:25:18;11.60;;;5.50;;
74532;SDS011;63012;51.096;-115.366;2022-09-12T02:28:13;13.00;;;6.30;;
74532;SDS011;63012;51.096;-115.366;2022-09-12T02:40:29;11.90;;;5.90;;
74532;SDS011;63012;51.096;-115.366;2022-09-12T02:42:59;12.60;;;5.90;;
74532;SDS011;63012;51.096;-115.366;2022-09-12T02:45:48;13.60;;;6.60;;
74532;SDS011;63012;51.096;-115.366;2022-09-12T02:51:03;12.40;;;6.40;;
74532;SDS011;63012;51.096;-115.366;2022-09-12T02:53:44;12.40;;;6.20;;
74532;SDS011;63012;51.096;-115.366;2022-09-12T02:56:20;11.50;;;5.70;;
74532;SDS011;63012;51.096;-115.366;2022-09-12T02:58:52;11.30;;;5.70;;
74532;SDS011;63012;51.096;-115.366;2022-09-12T03:11:36;13.40;;;6.60;;
74532;SDS011;63012;51.096;-115.366;2022-09-12T03:20:30;11.80;;;6.00;;
74532;SDS011;63012;51.096;-115.366;2022-09-12T03:23:04;13.20;;;6.20;;
74532;SDS011;63012;51.096;-115.366;2022-09-12T03:25:54;13.60;;;6.90;;
74532;SDS011;63012;51.096;-115.366;2022-09-12T03:28:35;11.70;;;5.90;;
74532;SDS011;63012;51.096;-115.366;2022-09-12T03:31:15;12.50;;;6.10;;
74532;SDS011;63012;51.096;-115.366;2022-09-12T03:33:44;12.90;;;6.30;;
74532;SDS011;63012;51.096;-115.366;2022-09-12T03:36:23;13.70;;;6.70;;
74532;SDS011;63012;51.096;-115.366;2022-09-12T03:38:52;12.70;;;6.50;;
74532;SDS011;63012;51.096;-115.366;2022-09-12T03:41:19;13.50;;;6.90;;
74532;SDS011;63012;51.096;-115.366;2022-09-12T03:43:47;14.50;;;7.00;;
74532;SDS011;63012;51.096;-115.366;2022-09-12T03:46:14;12.90;;;6.90;;
74532;SDS011;63012;51.096;-115.366;2022-09-12T03:48:41;12.40;;;6.20;;
74532;SDS011;63012;51.096;-115.366;2022-09-12T03:51:11;12.90;;;7.20;;
74532;SDS011;63012;51.096;-115.366;2022-09-12T03:53:39;12.60;;;6.40;;
74532;SDS011;63012;51.096;-115.366;2022-09-12T03:56:12;12.80;;;6.60;;
74532;SDS011;63012;51.096;-115.366;2022-09-12T03:58:39;13.40;;;6.80;;
74532;SDS011;63012;51.096;-115.366;2022-09-12T04:01:08;12.70;;;6.30;;
74532;SDS011;63012;51.096;-115.366;2022-09-12T04:03:45;11.50;;;6.10;;
74532;SDS011;63012;51.096;-115.366;2022-09-12T04:06:17;12.80;;;6.80;;
74532;SDS011;63012;51.096;-115.366;2022-09-12T04:08:50;12.50;;;6.30;;
74532;SDS011;63012;51.096;-115.366;2022-09-12T04:11:20;12.30;;;6.40;;
74532;SDS011;63012;51.096;-115.366;2022-09-12T04:13:48;13.00;;;6.70;;
74532;SDS011;63012;51.096;-115.366;2022-09-12T04:16:15;13.60;;;7.00;;
74532;SDS011;63012;51.096;-115.366;2022-09-12T04:18:43;12.50;;;6.50;;
74532;SDS011;63012;51.096;-115.366;2022-09-12T04:21:16;13.70;;;7.10;;
74532;SDS011;63012;51.096;-115.366;2022-09-12T04:23:47;13.00;;;6.90;;
74532;SDS011;63012;51.096;-115.366;2022-09-12T04:26:15;14.00;;;6.60;;
74532;SDS011;63012;51.096;-115.366;2022-09-12T04:28:43;12.80;;;6.70;;
74532;SDS011;63012;51.096;-115.366;2022-09-12T04:31:14;12.80;;;7.00;;
74532;SDS011;63012;51.096;-115.366;2022-09-12T04:33:44;12.10;;;6.30;;
74532;SDS011;63012;51.096;-115.366;2022-09-12T04:36:14;12.50;;;6.80;;
74532;SDS011;63012;51.096;-115.366;2022-09-12T04:38:51;12.60;;;6.60;;
74532;SDS011;63012;51.096;-115.366;2022-09-12T04:41:21;13.30;;;6.60;;
74532;SDS011;63012;51.096;-115.366;2022-09-12T04:43:58;13.00;;;6.70;;
74532;SDS011;63012;51.096;-115.366;2022-09-12T04:46:33;12.80;;;7.00;;
74532;SDS011;63012;51.096;-115.366;2022-09-12T04:49:02;13.20;;;6.60;;
74532;SDS011;63012;51.096;-115.366;2022-09-12T04:51:33;13.60;;;7.10;;
74532;SDS011;63012;51.096;-115.366;2022-09-12T04:54:04;12.40;;;6.30;;
74532;SDS011;63012;51.096;-115.366;2022-09-12T04:56:39;13.10;;;6.80;;
74532;SDS011;63012;51.096;-115.366;2022-09-12T04:59:07;13.10;;;6.80;;
74532;SDS011;63012;51.096;-115.366;2022-09-12T05:01:36;12.60;;;6.20;;
74532;SDS011;63012;51.096;-115.366;2022-09-12T05:04:03;13.30;;;7.40;;
74532;SDS011;63012;51.096;-115.366;2022-09-12T05:06:33;12.30;;;6.40;;
74532;SDS011;63012;51.096;-115.366;2022-09-12T05:09:04;13.30;;;6.80;;
74532;SDS011;63012;51.096;-115.366;2022-09-12T05:11:35;14.20;;;6.50;;
74532;SDS011;63012;51.096;-115.366;2022-09-12T05:14:04;12.80;;;6.40;;
74532;SDS011;63012;51.096;-115.366;2022-09-12T05:16:33;13.40;;;6.70;;
74532;SDS011;63012;51.096;-115.366;2022-09-12T05:19:00;12.30;;;6.70;;
74532;SDS011;63012;51.096;-115.366;2022-09-12T05:21:27;12.40;;;6.30;;
74532;SDS011;63012;51.096;-115.366;2022-09-12T05:23:56;13.40;;;6.10;;
74532;SDS011;63012;51.096;-115.366;2022-09-12T05:26:27;12.70;;;6.50;;
74532;SDS011;63012;51.096;-115.366;2022-09-12T05:28:55;11.80;;;6.70;;
74532;SDS011;63012;51.096;-115.366;2022-09-12T05:31:27;13.40;;;6.90;;
74532;SDS011;63012;51.096;-115.366;2022-09-12T05:33:54;13.10;;;6.50;;
74532;SDS011;63012;51.096;-115.366;2022-09-12T05:36:27;13.10;;;6.40;;
74532;SDS011;63012;51.096;-115.366;2022-09-12T05:38:56;12.90;;;6.80;;
74532;SDS011;63012;51.096;-115.366;2022-09-12T05:41:34;13.60;;;7.30;;
74532;SDS011;63012;51.096;-115.366;2022-09-12T05:44:06;12.90;;;6.60;;
74532;SDS011;63012;51.096;-115.366;2022-09-12T05:46:39;13.20;;;7.00;;
74532;SDS011;63012;51.096;-115.366;2022-09-12T05:49:10;12.50;;;6.30;;
74532;SDS011;63012;51.096;-115.366;2022-09-12T05:51:42;12.40;;;6.70;;
74532;SDS011;63012;51.096;-115.366;2022-09-12T05:54:13;13.50;;;7.10;;
74532;SDS011;63012;51.096;-115.366;2022-09-12T05:56:42;13.20;;;7.00;;
74532;SDS011;63012;51.096;-115.366;2022-09-12T05:59:13;12.60;;;6.70;;
74532;SDS011;63012;51.096;-115.366;2022-09-12T06:01:54;12.90;;;6.90;;
74532;SDS011;63012;51.096;-115.366;2022-09-12T06:04:24;13.00;;;6.70;;
74532;SDS011;63012;51.096;-115.366;2022-09-12T06:06:53;13.20;;;7.30;;
74532;SDS011;63012;51.096;-115.366;2022-09-12T06:09:20;13.80;;;6.60;;
74532;SDS011;63012;51.096;-115.366;2022-09-12T06:11:51;13.90;;;7.30;;
74532;SDS011;63012;51.096;-115.366;2022-09-12T06:14:21;12.70;;;6.90;;
74532;SDS011;63012;51.096;-115.366;2022-09-12T06:16:48;12.60;;;6.80;;
74532;SDS011;63012;51.096;-115.366;2022-09-12T06:19:20;13.00;;;6.90;;
74532;SDS011;63012;51.096;-115.366;2022-09-12T06:21:56;13.20;;;6.90;;
74532;SDS011;63012;51.096;-115.366;2022-09-12T06:24:24;13.80;;;7.40;;
74532;SDS011;63012;51.096;-115.366;2022-09-12T06:26:51;14.50;;;7.30;;
74532;SDS011;63012;51.096;-115.366;2022-09-12T06:29:27;13.30;;;7.00;;
74532;SDS011;63012;51.096;-115.366;2022-09-12T06:31:58;13.40;;;7.10;;
74532;SDS011;63012;51.096;-115.366;2022-09-12T06:34:45;13.90;;;7.20;;
74532;SDS011;63012;51.096;-115.366;2022-09-12T06:37:43;13.40;;;6.90;;
74532;SDS011;63012;51.096;-115.366;2022-09-12T06:40:11;13.10;;;7.00;;
74532;SDS011;63012;51.096;-115.366;2022-09-12T06:42:39;13.80;;;6.80;;
74532;SDS011;63012;51.096;-115.366;2022-09-12T06:45:12;12.90;;;6.90;;
74532;SDS011;63012;51.096;-115.366;2022-09-12T06:47:44;13.60;;;7.10;;
74532;SDS011;63012;51.096;-115.366;2022-09-12T06:50:11;13.80;;;7.40;;
74532;SDS011;63012;51.096;-115.366;2022-09-12T06:52:57;13.20;;;7.20;;
74532;SDS011;63012;51.096;-115.366;2022-09-12T06:55:30;13.80;;;7.00;;
74532;SDS011;63012;51.096;-115.366;2022-09-12T06:57:59;13.40;;;7.20;;
74532;SDS011;63012;51.096;-115.366;2022-09-12T07:00:48;13.40;;;6.90;;
74532;SDS011;63012;51.096;-115.366;2022-09-12T07:03:25;12.90;;;7.00;;
74532;SDS011;63012;51.096;-115.366;2022-09-12T07:06:05;13.60;;;6.60;;
74532;SDS011;63012;51.096;-115.366;2022-09-12T07:08:47;12.70;;;6.80;;
74532;SDS011;63012;51.096;-115.366;2022-09-12T07:11:22;13.20;;;7.60;;
74532;SDS011;63012;51.096;-115.366;2022-09-12T07:13:52;13.30;;;6.90;;
74532;SDS011;63012;51.096;-115.366;2022-09-12T07:16:21;14.00;;;7.40;;
74532;SDS011;63012;51.096;-115.366;2022-09-12T07:18:56;13.90;;;7.20;;
74532;SDS011;63012;51.096;-115.366;2022-09-12T07:21:28;12.60;;;6.50;;
74532;SDS011;63012;51.096;-115.366;2022-09-12T07:24:10;13.90;;;7.50;;
74532;SDS011;63012;51.096;-115.366;2022-09-12T07:26:54;12.30;;;7.00;;
74532;SDS011;63012;51.096;-115.366;2022-09-12T07:29:21;13.60;;;7.00;;
74532;SDS011;63012;51.096;-115.366;2022-09-12T07:31:52;13.60;;;7.10;;
74532;SDS011;63012;51.096;-115.366;2022-09-12T07:34:19;13.90;;;7.40;;
74532;SDS011;63012;51.096;-115.366;2022-09-12T07:36:47;13.70;;;7.40;;
74532;SDS011;63012;51.096;-115.366;2022-09-12T07:39:14;13.90;;;7.10;;
74532;SDS011;63012;51.096;-115.366;2022-09-12T07:41:50;13.30;;;6.90;;
74532;SDS011;63012;51.096;-115.366;2022-09-12T07:44:18;14.50;;;7.20;;
74532;SDS011;63012;51.096;-115.366;2022-09-12T07:46:48;13.60;;;7.00;;
74532;SDS011;63012;51.096;-115.366;2022-09-12T07:49:15;13.50;;;7.20;;
74532;SDS011;63012;51.096;-115.366;2022-09-12T07:51:52;13.20;;;7.10;;
74532;SDS011;63012;51.096;-115.366;2022-09-12T07:54:30;13.90;;;7.30;;
74532;SDS011;63012;51.096;-115.366;2022-09-12T07:56:58;12.90;;;6.80;;
74532;SDS011;63012;51.096;-115.366;2022-09-12T07:59:34;12.50;;;6.80;;
74532;SDS011;63012;51.096;-115.366;2022-09-12T08:02:11;13.50;;;7.00;;
74532;SDS011;63012;51.096;-115.366;2022-09-12T08:04:39;13.80;;;7.20;;
74532;SDS011;63012;51.096;-115.366;2022-09-12T08:07:09;13.60;;;6.90;;
74532;SDS011;63012;51.096;-115.366;2022-09-12T08:09:37;13.60;;;7.20;;
74532;SDS011;63012;51.096;-115.366;2022-09-12T08:12:05;14.00;;;7.50;;
74532;SDS011;63012;51.096;-115.366;2022-09-12T08:14:32;13.50;;;7.70;;
74532;SDS011;63012;51.096;-115.366;2022-09-12T08:16:59;14.40;;;7.10;;
74532;SDS011;63012;51.096;-115.366;2022-09-12T08:19:27;13.70;;;7.60;;
74532;SDS011;63012;51.096;-115.366;2022-09-12T08:21:54;14.50;;;7.10;;
74532;SDS011;63012;51.096;-115.366;2022-09-12T08:24:21;14.00;;;7.20;;
74532;SDS011;63012;51.096;-115.366;2022-09-12T08:26:49;13.70;;;7.60;;
74532;SDS011;63012;51.096;-115.366;2022-09-12T08:29:17;13.60;;;7.60;;
74532;SDS011;63012;51.096;-115.366;2022-09-12T08:31:53;13.00;;;7.50;;
74532;SDS011;63012;51.096;-115.366;2022-09-12T08:34:23;13.20;;;7.20;;
74532;SDS011;63012;51.096;-115.366;2022-09-12T08:36:51;13.40;;;7.00;;
74532;SDS011;63012;51.096;-115.366;2022-09-12T08:39:21;13.80;;;7.50;;
74532;SDS011;63012;51.096;-115.366;2022-09-12T08:42:00;13.30;;;6.90;;
74532;SDS011;63012;51.096;-115.366;2022-09-12T08:45:02;13.40;;;7.40;;
74532;SDS011;63012;51.096;-115.366;2022-09-12T08:47:43;13.50;;;7.00;;
74532;SDS011;63012;51.096;-115.366;2022-09-12T08:50:15;13.70;;;7.60;;
74532;SDS011;63012;51.096;-115.366;2022-09-12T08:52:54;13.80;;;7.60;;
74532;SDS011;63012;51.096;-115.366;2022-09-12T08:58:27;14.60;;;7.90;;
74532;SDS011;63012;51.096;-115.366;2022-09-12T09:10:17;13.30;;;7.20;;
74532;SDS011;63012;51.096;-115.366;2022-09-12T09:16:43;13.80;;;7.20;;
74532;SDS011;63012;51.096;-115.366;2022-09-12T09:22:11;14.40;;;7.70;;
74532;SDS011;63012;51.096;-115.366;2022-09-12T09:24:58;13.00;;;7.20;;
74532;SDS011;63012;51.096;-115.366;2022-09-12T09:27:36;12.70;;;7.30;;
74532;SDS011;63012;51.096;-115.366;2022-09-12T09:30:29;13.40;;;7.50;;
74532;SDS011;63012;51.096;-115.366;2022-09-12T09:33:17;13.60;;;7.70;;
74532;SDS011;63012;51.096;-115.366;2022-09-12T09:39:15;13.10;;;7.10;;
74532;SDS011;63012;51.096;-115.366;2022-09-12T09:42:19;12.80;;;6.60;;
74532;SDS011;63012;51.096;-115.366;2022-09-12T09:45:20;15.30;;;7.60;;
74532;SDS011;63012;51.096;-115.366;2022-09-12T09:50:44;13.60;;;7.90;;
74532;SDS011;63012;51.096;-115.366;2022-09-12T09:53:50;13.90;;;7.60;;
74532;SDS011;63012;51.096;-115.366;2022-09-12T09:56:30;15.50;;;8.20;;
74532;SDS011;63012;51.096;-115.366;2022-09-12T10:02:47;13.00;;;6.70;;
74532;SDS011;63012;51.096;-115.366;2022-09-12T10:05:15;13.80;;;7.90;;
74532;SDS011;63012;51.096;-115.366;2022-09-12T10:08:02;13.80;;;7.30;;
74532;SDS011;63012;51.096;-115.366;2022-09-12T10:10:35;14.50;;;7.50;;
74532;SDS011;63012;51.096;-115.366;2022-09-12T10:13:24;13.50;;;7.40;;
74532;SDS011;63012;51.096;-115.366;2022-09-12T10:16:18;14.80;;;7.50;;
74532;SDS011;63012;51.096;-115.366;2022-09-12T10:18:48;14.00;;;7.80;;
74532;SDS011;63012;51.096;-115.366;2022-09-12T10:21:36;13.90;;;7.70;;
74532;SDS011;63012;51.096;-115.366;2022-09-12T10:25:10;13.80;;;7.70;;
74532;SDS011;63012;51.096;-115.366;2022-09-12T10:27:23;14.50;;;7.70;;
74532;SDS011;63012;51.096;-115.366;2022-09-12T10:30:00;13.90;;;7.70;;
74532;SDS011;63012;51.096;-115.366;2022-09-12T10:33:05;14.10;;;8.20;;
74532;SDS011;63012;51.096;-115.366;2022-09-12T10:35:48;14.60;;;7.90;;
74532;SDS011;63012;51.096;-115.366;2022-09-12T10:38:25;14.40;;;7.70;;
74532;SDS011;63012;51.096;-115.366;2022-09-12T10:41:07;14.30;;;7.70;;
74532;SDS011;63012;51.096;-115.366;2022-09-12T10:43:39;13.90;;;7.90;;
74532;SDS011;63012;51.096;-115.366;2022-09-12T10:46:20;15.10;;;7.80;;
74532;SDS011;63012;51.096;-115.366;2022-09-12T10:49:22;14.40;;;7.80;;
74532;SDS011;63012;51.096;-115.366;2022-09-12T10:52:40;14.20;;;8.00;;
74532;SDS011;63012;51.096;-115.366;2022-09-12T10:55:33;14.70;;;7.80;;
74532;SDS011;63012;51.096;-115.366;2022-09-12T10:58:27;15.80;;;8.40;;
74532;SDS011;63012;51.096;-115.366;2022-09-12T11:05:01;14.80;;;8.00;;
74532;SDS011;63012;51.096;-115.366;2022-09-12T11:07:54;14.50;;;8.00;;
74532;SDS011;63012;51.096;-115.366;2022-09-12T11:21:08;14.50;;;8.00;;
74532;SDS011;63012;51.096;-115.366;2022-09-12T11:24:22;14.40;;;8.30;;
74532;SDS011;63012;51.096;-115.366;2022-09-12T11:30:17;13.90;;;7.50;;
74532;SDS011;63012;51.096;-115.366;2022-09-12T11:36:01;14.40;;;7.80;;
74532;SDS011;63012;51.096;-115.366;2022-09-12T11:38:51;14.20;;;7.40;;
74532;SDS011;63012;51.096;-115.366;2022-09-12T11:41:50;14.10;;;7.90;;
74532;SDS011;63012;51.096;-115.366;2022-09-12T11:44:36;14.00;;;7.90;;
74532;SDS011;63012;51.096;-115.366;2022-09-12T11:47:11;14.30;;;8.10;;
74532;SDS011;63012;51.096;-115.366;2022-09-12T11:50:10;14.60;;;7.70;;
74532;SDS011;63012;51.096;-115.366;2022-09-12T11:53:15;14.70;;;8.00;;
74532;SDS011;63012;51.096;-115.366;2022-09-12T11:56:26;14.70;;;7.50;;
74532;SDS011;63012;51.096;-115.366;2022-09-12T11:59:00;14.10;;;8.30;;
74532;SDS011;63012;51.096;-115.366;2022-09-12T12:01:41;14.60;;;7.80;;
74532;SDS011;63012;51.096;-115.366;2022-09-12T12:04:11;13.70;;;7.40;;
74532;SDS011;63012;51.096;-115.366;2022-09-12T12:07:05;14.40;;;7.80;;
74532;SDS011;63012;51.096;-115.366;2022-09-12T12:09:49;14.50;;;7.60;;
74532;SDS011;63012;51.096;-115.366;2022-09-12T12:12:22;15.10;;;7.60;;
74532;SDS011;63012;51.096;-115.366;2022-09-12T12:14:54;14.40;;;7.80;;
74532;SDS011;63012;51.096;-115.366;2022-09-12T12:17:25;15.40;;;8.10;;
74532;SDS011;63012;51.096;-115.366;2022-09-12T12:20:16;13.50;;;7.20;;
74532;SDS011;63012;51.096;-115.366;2022-09-12T12:22:51;14.20;;;7.30;;
74532;SDS011;63012;51.096;-115.366;2022-09-12T12:25:50;14.10;;;7.40;;
74532;SDS011;63012;51.096;-115.366;2022-09-12T12:31:16;13.80;;;7.10;;
74532;SDS011;63012;51.096;-115.366;2022-09-12T12:36:34;14.30;;;8.00;;
74532;SDS011;63012;51.096;-115.366;2022-09-12T12:42:05;13.50;;;7.40;;
74532;SDS011;63012;51.096;-115.366;2022-09-12T12:48:07;14.00;;;7.50;;
74532;SDS011;63012;51.096;-115.366;2022-09-12T12:50:42;13.70;;;7.30;;
74532;SDS011;63012;51.096;-115.366;2022-09-12T12:53:19;14.70;;;7.90;;
74532;SDS011;63012;51.096;-115.366;2022-09-12T12:55:54;13.80;;;7.40;;
74532;SDS011;63012;51.096;-115.366;2022-09-12T12:58:58;13.90;;;7.90;;
74532;SDS011;63012;51.096;-115.366;2022-09-12T13:01:44;13.90;;;7.90;;
74532;SDS011;63012;51.096;-115.366;2022-09-12T13:04:22;13.70;;;7.40;;
74532;SDS011;63012;51.096;-115.366;2022-09-12T13:07:02;15.30;;;8.30;;
74532;SDS011;63012;51.096;-115.366;2022-09-12T13:09:59;14.50;;;7.70;;
74532;SDS011;63012;51.096;-115.366;2022-09-12T13:12:32;14.60;;;8.20;;
74532;SDS011;63012;51.096;-115.366;2022-09-12T13:15:27;13.10;;;7.20;;
74532;SDS011;63012;51.096;-115.366;2022-09-12T13:18:19;14.00;;;7.70;;
74532;SDS011;63012;51.096;-115.366;2022-09-12T13:21:21;16.10;;;9.00;;
74532;SDS011;63012;51.096;-115.366;2022-09-12T13:24:13;14.10;;;8.30;;
74532;SDS011;63012;51.096;-115.366;2022-09-12T13:26:47;14.90;;;8.30;;
74532;SDS011;63012;51.096;-115.366;2022-09-12T13:29:26;15.00;;;8.20;;
74532;SDS011;63012;51.096;-115.366;2022-09-12T13:32:15;13.50;;;7.50;;
74532;SDS011;63012;51.096;-115.366;2022-09-12T13:35:06;15.10;;;8.40;;
74532;SDS011;63012;51.096;-115.366;2022-09-12T13:37:50;12.90;;;7.00;;
74532;SDS011;63012;51.096;-115.366;2022-09-12T13:41:18;14.50;;;7.20;;
74532;SDS011;63012;51.096;-115.366;2022-09-12T13:43:54;13.40;;;7.30;;
74532;SDS011;63012;51.096;-115.366;2022-09-12T13:46:41;14.10;;;7.40;;
74532;SDS011;63012;51.096;-115.366;2022-09-12T13:52:26;13.80;;;7.50;;
74532;SDS011;63012;51.096;-115.366;2022-09-12T13:54:57;13.80;;;7.50;;
74532;SDS011;63012;51.096;-115.366;2022-09-12T13:57:38;14.50;;;7.60;;
74532;SDS011;63012;51.096;-115.366;2022-09-12T14:00:26;14.20;;;7.50;;
74532;SDS011;63012;51.096;-115.366;2022-09-12T14:06:50;14.30;;;7.40;;
74532;SDS011;63012;51.096;-115.366;2022-09-12T14:09:31;13.20;;;7.20;;
74532;SDS011;63012;51.096;-115.366;2022-09-12T14:12:04;13.80;;;7.40;;
74532;SDS011;63012;51.096;-115.366;2022-09-12T14:14:57;13.20;;;7.10;;
74532;SDS011;63012;51.096;-115.366;2022-09-12T14:17:58;13.50;;;7.20;;
74532;SDS011;63012;51.096;-115.366;2022-09-12T14:20:46;13.70;;;7.80;;
74532;SDS011;63012;51.096;-115.366;2022-09-12T14:23:41;13.20;;;7.10;;
74532;SDS011;63012;51.096;-115.366;2022-09-12T14:26:33;13.80;;;7.50;;
74532;SDS011;63012;51.096;-115.366;2022-09-12T14:29:26;14.00;;;7.80;;
74532;SDS011;63012;51.096;-115.366;2022-09-12T14:32:21;13.20;;;6.90;;
74532;SDS011;63012;51.096;-115.366;2022-09-12T14:35:17;13.20;;;6.90;;
74532;SDS011;63012;51.096;-115.366;2022-09-12T14:37:51;14.10;;;7.80;;
74532;SDS011;63012;51.096;-115.366;2022-09-12T14:40:31;13.20;;;7.30;;
74532;SDS011;63012;51.096;-115.366;2022-09-12T14:49:39;13.00;;;7.00;;
74532;SDS011;63012;51.096;-115.366;2022-09-12T14:52:33;13.50;;;7.50;;
74532;SDS011;63012;51.096;-115.366;2022-09-12T14:58:26;14.00;;;7.50;;
74532;SDS011;63012;51.096;-115.366;2022-09-12T15:00:57;13.60;;;7.20;;
74532;SDS011;63012;51.096;-115.366;2022-09-12T15:06:30;13.40;;;7.10;;
74532;SDS011;63012;51.096;-115.366;2022-09-12T15:09:21;13.80;;;7.40;;
74532;SDS011;63012;51.096;-115.366;2022-09-12T15:12:13;13.70;;;7.10;;
74532;SDS011;63012;51.096;-115.366;2022-09-12T15:14:44;12.20;;;6.40;;
74532;SDS011;63012;51.096;-115.366;2022-09-12T15:17:23;12.70;;;7.00;;
74532;SDS011;63012;51.096;-115.366;2022-09-12T15:20:01;13.30;;;7.10;;
74532;SDS011;63012;51.096;-115.366;2022-09-12T15:22:51;13.90;;;7.70;;
74532;SDS011;63012;51.096;-115.366;2022-09-12T15:25:19;13.70;;;7.50;;
74532;SDS011;63012;51.096;-115.366;2022-09-12T15:27:59;13.50;;;7.00;;
74532;SDS011;63012;51.096;-115.366;2022-09-12T15:30:35;13.50;;;7.00;;
74532;SDS011;63012;51.096;-115.366;2022-09-12T15:33:14;13.30;;;7.30;;
74532;SDS011;63012;51.096;-115.366;2022-09-12T15:36:15;13.90;;;7.40;;
74532;SDS011;63012;51.096;-115.366;2022-09-12T15:38:45;14.40;;;7.80;;
74532;SDS011;63012;51.096;-115.366;2022-09-12T15:41:21;12.10;;;6.10;;
74532;SDS011;63012;51.096;-115.366;2022-09-12T15:43:49;13.90;;;7.40;;
74532;SDS011;63012;51.096;-115.366;2022-09-12T15:46:16;12.20;;;6.60;;
74532;SDS011;63012;51.096;-115.366;2022-09-12T15:48:48;13.10;;;7.10;;
74532;SDS011;63012;51.096;-115.366;2022-09-12T15:51:19;14.10;;;7.10;;
74532;SDS011;63012;51.096;-115.366;2022-09-12T15:54:08;12.50;;;6.30;;
74532;SDS011;63012;51.096;-115.366;2022-09-12T15:56:39;12.70;;;6.70;;
74532;SDS011;63012;51.096;-115.366;2022-09-12T15:59:06;12.90;;;6.80;;
74532;SDS011;63012;51.096;-115.366;2022-09-12T16:01:50;13.50;;;6.90;;
74532;SDS011;63012;51.096;-115.366;2022-09-12T16:04:25;11.70;;;6.40;;
74532;SDS011;63012;51.096;-115.366;2022-09-12T16:06:55;12.80;;;7.00;;
74532;SDS011;63012;51.096;-115.366;2022-09-12T16:09:35;12.40;;;7.00;;
74532;SDS011;63012;51.096;-115.366;2022-09-12T16:12:02;12.30;;;6.80;;
74532;SDS011;63012;51.096;-115.366;2022-09-12T16:14:35;13.10;;;7.10;;
74532;SDS011;63012;51.096;-115.366;2022-09-12T16:17:05;13.10;;;6.80;;
74532;SDS011;63012;51.096;-115.366;2022-09-12T16:19:36;12.20;;;6.00;;
74532;SDS011;63012;51.096;-115.366;2022-09-12T16:22:09;12.60;;;6.90;;
74532;SDS011;63012;51.096;-115.366;2022-09-12T16:24:48;12.00;;;6.20;;
74532;SDS011;63012;51.096;-115.366;2022-09-12T16:27:24;12.70;;;6.30;;
74532;SDS011;63012;51.096;-115.366;2022-09-12T16:29:52;12.60;;;6.90;;
74532;SDS011;63012;51.096;-115.366;2022-09-12T16:32:28;12.30;;;6.60;;
74532;SDS011;63012;51.096;-115.366;2022-09-12T16:34:55;12.40;;;6.80;;
74532;SDS011;63012;51.096;-115.366;2022-09-12T16:37:23;13.00;;;6.70;;
74532;SDS011;63012;51.096;-115.366;2022-09-12T16:39:54;12.80;;;6.70;;
74532;SDS011;63012;51.096;-115.366;2022-09-12T16:42:42;12.60;;;6.60;;
74532;SDS011;63012;51.096;-115.366;2022-09-12T16:45:09;13.30;;;7.40;;
74532;SDS011;63012;51.096;-115.366;2022-09-12T16:47:37;12.30;;;6.40;;
74532;SDS011;63012;51.096;-115.366;2022-09-12T16:50:04;13.00;;;7.00;;
74532;SDS011;63012;51.096;-115.366;2022-09-12T16:52:35;13.50;;;7.20;;
74532;SDS011;63012;51.096;-115.366;2022-09-12T17:07:18;21.50;;;13.40;;
74532;SDS011;63012;51.096;-115.366;2022-09-12T17:09:45;23.10;;;14.60;;
74532;SDS011;63012;51.096;-115.366;2022-09-12T17:12:13;21.10;;;13.20;;
74532;SDS011;63012;51.096;-115.366;2022-09-12T17:14:40;22.00;;;13.30;;
74532;SDS011;63012;51.096;-115.366;2022-09-12T17:17:07;21.10;;;13.20;;
74532;SDS011;63012;51.096;-115.366;2022-09-12T17:19:34;23.50;;;13.40;;